Marion, WI

2:58 AM CST on February 09, 2016 (GMT -0600)
Clintonville Municipal | | Change Station
CLOSE
Current Station
Airport
Location: Clintonville,
Elevation: 823 ft
Nearby Weather Stations

Elev 823 ft 44.62 °N, 88.73 °W | Updated 3 minutes ago

Snow
Snow
14 °F
Feels Like -1 °F
N
14
Wind Variable Wind from NW
Gusts 17 mph

Today
High -- | Low -- °F
--% Chance of Precip.
Yesterday
High -- | Low -- °F
Precip. -- in
Pressure 29.77 in
Visibility 7.0 miles
Clouds Mostly Cloudy 3200 ft
Overcast 3900 ft
Windchill -1 °F
Dew Point 9 °F
Humidity 79%
Rainfall 0.00 in
Snow Depth Not available.
7:05 AM 5:15 PM
New Moon, 1% visible
METAR KCLI 090855Z AUTO 31012G15KT 7SM -SN BKN032 OVC039 M10/M13 A2977 RMK AO2
Pressure 29.77 in
Visibility 7.0 miles
Clouds Mostly Cloudy 3200 ft
Overcast 3900 ft
Windchill -1 °F
Dew Point 9 °F
Humidity 79%
Rainfall 0.00 in
Snow Depth Not available.
7:05 AM 5:15 PM
New Moon, 1% visible
METAR KCLI 090855Z AUTO 31012G15KT 7SM -SN BKN032 OVC039 M10/M13 A2977 RMK AO2

10-Day Weather Forecast

Almanac

Astronomy

Feb. 09, 2016 Rise Set
Actual Time
Civil Twilight
Nautical Twilight
Astronomical Twilight
Moon
Length of Visible Light
Length of Day
Tomorrow will be .
, % of the Moon is Illuminated

Today's Extremes

State Highs State Lows

Community

WunderPhotos

Upload Photos

1,891,571 photos uploaded!

WunderBlog® & News

Nearby

Air Quality

  Air Quality AQ Index Pollutant
Not available.

Snow Depth

Station Depth Elevation

Earthquake Activity

City Distance Mag. Time & Date
Minimum magnitude displayed is 2.5.

Coastal Water Temperatures

Place Temperature

Stations

Nearby Weather Stations

Station Location Temp. Windchill Dew Point Humidity Wind Precip. Elev Updated Type
                   

Watches & Warnings

There are currently no watches in effect.